• Join FlightAware (Why Join?)
  • Login
  • US Flag 
09:47AM EDT


 

Airport Tracker/Info


-or-


 

Live Flight TrackerFlight Track Log ✈ SWA407 ✈ 26-Apr-2013 ✈ KSAN - KLAS

Flight Track Log - Related Links

Times and Time Zones

All times are in EDT time to prevent confusion due to time zone crossing. See the SWA407 flight status page for this flight to view local times or setup timezone preferences in your user account.

Time Position Orientation Groundspeed Altitude Reporting Facility
EDT Latitude Longitude Course Direction KTS MPH feet Rate Location/Type
01:13AM 32.7717 -117.2831 291° West 227 261 4,300  Level Los Angeles Center
01:14AM 32.8153 -117.3528 307° West 258 297 8,200 3,960 Climbing Los Angeles Center
01:15AM 32.8717 -117.4236 313° West 287 330 12,400 3,360 Climbing Los Angeles Center
01:16AM 32.9300 -117.4997 312° West 304 350 15,100 2,760 Climbing Los Angeles Center
01:18AM 32.9911 -117.5814 312° West 324 373 18,700 3,000 Climbing Los Angeles Center
01:19AM 33.1014 -117.6503 332° Northwest 357 411 21,800 2,340 Climbing Los Angeles Center
01:20AM 33.2103 -117.6656 353° North 392 451 23,500 1,920 Climbing Los Angeles Center
01:21AM 33.3300 -117.6806 354° North 429 494 25,800 2,160 Climbing Los Angeles Center
01:22AM 33.4508 -117.6983 353° North 439 505 28,000 1,560 Climbing Los Angeles Center
01:23AM 33.5719 -117.7156 353° North 440 506 29,000 480 Climbing Los Angeles Center
01:24AM 33.6919 -117.7322 353° North 438 504 29,000  Level Los Angeles Center
01:25AM 33.8111 -117.7453 355° North 434 499 29,000  Level Los Angeles Center
01:26AM 33.9292 -117.6519 33° Northeast 431 496 29,000  Level Los Angeles Center
01:27AM 34.0214 -117.5578 40° Northeast 435 501 29,000  Level Los Angeles Center
01:28AM 34.1136 -117.4625 41° Northeast 437 503 29,000  Level Los Angeles Center
01:29AM 34.2050 -117.3669 41° Northeast 438 504 29,000  Level Los Angeles Center
01:30AM 34.2975 -117.2714 40° Northeast 439 505 29,000  Level Los Angeles Center
01:31AM 34.3908 -117.1753 40° Northeast 442 509 29,000  Level Los Angeles Center
01:32AM 34.4783 -117.0842 41° Northeast 441 507 29,000  Level Los Angeles Center
01:33AM 34.5714 -116.9861 41° Northeast 444 511 29,000  Level Los Angeles Center
01:34AM 34.6833 -116.8703 40° Northeast 444 511 29,000 -300 Level Los Angeles Center
01:35AM 34.7750 -116.7722 41° Northeast 443 510 28,500 -720 Descending Los Angeles Center
01:36AM 34.8672 -116.6756 41° Northeast 440 506 27,600 -1,020 Descending Los Angeles Center
01:37AM 34.9597 -116.5775 41° Northeast 443 510 26,500 -1,080 Descending Los Angeles Center
01:38AM 35.0436 -116.4731 46° Northeast 436 502 25,500 -1,020 Descending Los Angeles Center
01:39AM 35.1278 -116.3672 46° Northeast 435 501 24,500 -1,020 Descending Los Angeles Center
01:40AM 35.2111 -116.2644 45° Northeast 430 495 23,500 -1,140 Descending Los Angeles Center
01:41AM 35.2917 -116.1639 46° Northeast 418 481 22,200 -1,740 Descending Los Angeles Center
01:42AM 35.3697 -116.0625 47° Northeast 410 472 20,000 -2,340 Descending Los Angeles Center
01:43AM 35.4469 -115.9669 45° Northeast 411 473 17,700 -2,460 Descending Los Angeles Center
01:44AM 35.5372 -115.8478 47° Northeast 400 460 15,000 -2,160 Descending Los Angeles Center
01:45AM 35.6100 -115.7611 44° Northeast 375 432 13,200 -1,140 Descending Los Angeles Center
01:46AM 35.6772 -115.6653 49° Northeast 370 426 12,700 -840 Descending Los Angeles Center
01:47AM 35.7369 -115.5575 56° Northeast 364 419 11,600 -840 Descending Los Angeles Center
01:48AM 35.7931 -115.4617 54° Northeast 364 419 11,000 -660 Descending Los Angeles Center
01:49AM 35.8497 -115.3642 54° Northeast 360 414 10,300 -900 Descending Los Angeles Center
01:50AM 35.9067 -115.2636 55° Northeast 290 334 9,200 -1,020 Descending Los Angeles Center
01:51AM 35.9539 -115.1819 54° Northeast 276 318 8,100 -840 Descending Los Angeles Center
01:52AM 35.9894 -115.1169 56° Northeast 239 275 7,600 -720 Descending Los Angeles Center
01:53AM 36.0081 -115.0444 72° East 199 229 6,700 -1,020 Descending Los Angeles Center
01:54AM 36.0050 -115.0003 95° East 204 235 5,900 -1,200 Descending Los Angeles Center
01:54AM 36.0114 -114.9725 74° East 206 237 5,500 -840 Descending Los Angeles Center
01:55AM 36.0536 -114.9761 356° North 184 212 4,900 -1,020 Descending Los Angeles Center
01:56AM 36.0742 -115.0306 295° West 160 184 3,700 -1,140 Descending Los Angeles Center
01:57AM 36.0758 -115.0778 273° West 151 174 2,800 -900 Descending Los Angeles Center
01:57AM 36.0778 -115.0889 282° West 160 184 2,600 -600 Descending Los Angeles Center
01:58AM 36.0767 -115.1328 268° West 144 166 2,000 -600 Descending Los Angeles Center
02:00AM 36.0667 -115.1500 270° West  Level FlightAware Approximate